Time;durP1;ratioP1;P1;durP2;ratioP2;P2;SDS_P1;SDS_P2;PMS_P1;PMS_P2;Temp;Humidity;BMP_temperature;BMP_pressure;BME280_temperature;BME280_humidity;BME280_pressure;Samples;Min_cycle;Max_cycle;Signal;HPM_P1;HPM_P2
2022/04/06 00:00:25;;;;;;;14.25;2.85;;;10.90;99.90;;;;;;5015811;28;20041;-69
2022/04/06 00:02:50;;;;;;;10.05;2.78;;;10.90;99.90;;;;;;5015835;28;20133;-69
2022/04/06 00:05:16;;;;;;;19.35;2.85;;;10.80;99.90;;;;;;5015799;28;20088;-69
2022/04/06 00:07:43;;;;;;;16.63;3.47;;;10.70;99.90;;;;;;5015140;28;20045;-69
2022/04/06 00:10:10;;;;;;;17.17;3.78;;;10.70;99.90;;;;;;5015621;28;20022;-69
2022/04/06 00:12:37;;;;;;;19.13;4.07;;;10.70;99.90;;;;;;5015259;28;20475;-70
2022/04/06 00:15:05;;;;;;;25.92;4.00;;;10.70;99.90;;;;;;5015272;28;20076;-69
2022/04/06 00:17:30;;;;;;;24.70;4.95;;;10.70;99.90;;;;;;5014907;28;20034;-70
2022/04/06 00:19:56;;;;;;;22.10;4.57;;;10.70;99.90;;;;;;5014693;28;20038;-70
2022/04/06 00:22:22;;;;;;;23.88;4.80;;;10.70;99.90;;;;;;5015139;28;20024;-70
2022/04/06 00:24:48;;;;;;;28.75;5.18;;;10.60;99.90;;;;;;5015139;28;20101;-70
2022/04/06 00:27:14;;;;;;;25.17;4.55;;;10.60;99.90;;;;;;5017659;28;20153;-69
2022/04/06 00:29:39;;;;;;;22.27;4.38;;;10.70;99.90;;;;;;5021630;28;20429;-69
2022/04/06 00:32:05;;;;;;;22.88;4.82;;;10.70;99.90;;;;;;5014418;28;20120;-70
2022/04/06 00:37:15;;;;;;;31.65;5.32;;;10.60;99.90;;;;;;5015058;28;20125;-70
2022/04/06 00:39:41;;;;;;;19.92;3.78;;;10.60;99.90;;;;;;5014907;28;20125;-70
2022/04/06 00:42:06;;;;;;;24.70;6.35;;;10.60;99.90;;;;;;5014846;28;20116;-70
2022/04/06 00:44:35;;;;;;;25.65;4.93;;;10.60;99.90;;;;;;5014495;28;20030;-69
2022/04/06 00:47:04;;;;;;;21.35;4.63;;;10.60;99.90;;;;;;5015255;28;20056;-69
2022/04/06 00:49:31;;;;;;;25.30;4.90;;;10.60;99.90;;;;;;5013575;28;20057;-69
2022/04/06 00:51:58;;;;;;;23.55;4.95;;;10.60;99.90;;;;;;5014988;28;20025;-70
2022/04/06 00:54:24;;;;;;;20.23;5.00;;;10.60;99.90;;;;;;5012784;28;20030;-69
2022/04/06 00:56:50;;;;;;;21.27;5.30;;;10.60;99.90;;;;;;5014402;28;20481;-69
2022/04/06 00:59:17;;;;;;;20.30;5.35;;;10.60;99.90;;;;;;5014661;28;20045;-69
2022/04/06 01:01:50;;;;;;;22.58;5.55;;;10.60;99.90;;;;;;5015012;28;20026;-69
2022/04/06 01:04:17;;;;;;;28.42;5.25;;;10.60;99.90;;;;;;5024667;28;20021;-69
2022/04/06 01:06:44;;;;;;;21.83;5.68;;;10.60;99.90;;;;;;5014347;28;20068;-70
2022/04/06 01:09:10;;;;;;;22.00;5.53;;;10.70;99.90;;;;;;5014238;28;20034;-69
2022/04/06 01:11:35;;;;;;;20.75;5.30;;;10.60;99.90;;;;;;5013952;28;20386;-69
2022/04/06 01:14:02;;;;;;;24.70;4.93;;;10.60;99.90;;;;;;5013412;28;20128;-69
2022/04/06 01:16:28;;;;;;;20.42;5.82;;;10.60;99.90;;;;;;5014120;28;20029;-70
2022/04/06 01:18:54;;;;;;;23.73;5.00;;;10.60;99.90;;;;;;5013910;28;20046;-69
2022/04/06 01:21:21;;;;;;;23.08;5.22;;;10.60;99.90;;;;;;5013391;28;20099;-70
2022/04/06 01:23:47;;;;;;;27.83;6.10;;;10.60;99.90;;;;;;5013683;28;20037;-69
2022/04/06 01:26:13;;;;;;;19.77;5.38;;;10.60;99.90;;;;;;5013717;28;20050;-69
2022/04/06 01:28:40;;;;;;;24.65;5.72;;;10.60;99.90;;;;;;5013972;28;20466;-69
2022/04/06 01:31:06;;;;;;;17.88;4.82;;;10.50;99.90;;;;;;5013749;28;20014;-69
2022/04/06 01:33:32;;;;;;;28.17;5.45;;;10.50;99.90;;;;;;5013723;28;20044;-69
2022/04/06 01:35:59;;;;;;;22.02;5.47;;;10.50;99.90;;;;;;5013644;28;20026;-70
2022/04/06 01:38:25;;;;;;;21.73;5.45;;;10.50;99.90;;;;;;5013770;28;20084;-69
2022/04/06 01:40:54;;;;;;;22.95;6.03;;;10.50;99.90;;;;;;5014076;28;20049;-69
2022/04/06 01:43:20;;;;;;;20.38;5.32;;;10.50;99.90;;;;;;5013479;28;20033;-70
2022/04/06 01:45:46;;;;;;;20.52;5.13;;;10.40;99.90;;;;;;5013511;28;20036;-70
2022/04/06 01:48:16;;;;;;;29.85;8.30;;;10.40;99.90;;;;;;5014135;28;20037;-69
2022/04/06 01:53:28;;;;;;;36.28;9.18;;;10.40;99.90;;;;;;5012215;28;20118;-69
2022/04/06 01:55:54;;;;;;;23.33;6.40;;;10.40;99.90;;;;;;5013502;28;20034;-70
2022/04/06 01:58:20;;;;;;;22.85;6.63;;;10.30;99.90;;;;;;5013221;28;20121;-69
2022/04/06 02:00:46;;;;;;;22.13;6.00;;;10.30;99.90;;;;;;5013516;28;20109;-69
2022/04/06 02:03:13;;;;;;;26.70;6.53;;;10.30;99.90;;;;;;5012169;28;20045;-69
2022/04/06 02:05:38;;;;;;;25.45;4.70;;;10.30;99.90;;;;;;5013515;28;20061;-69
2022/04/06 02:08:04;;;;;;;18.58;5.35;;;10.30;99.90;;;;;;5011842;28;20470;-69
2022/04/06 02:10:30;;;;;;;17.90;5.55;;;10.20;99.90;;;;;;5013517;28;20065;-69
2022/04/06 02:12:57;;;;;;;20.60;5.03;;;10.20;99.90;;;;;;5011630;28;20055;-69
2022/04/06 02:15:24;;;;;;;20.60;5.30;;;10.20;99.90;;;;;;5027965;28;20084;-70
2022/04/06 02:17:50;;;;;;;15.70;4.80;;;10.20;99.90;;;;;;5013095;28;20133;-69
2022/04/06 02:20:16;;;;;;;18.67;5.00;;;10.20;99.90;;;;;;5013295;28;20069;-69
2022/04/06 02:22:42;;;;;;;26.80;6.85;;;10.20;99.90;;;;;;5012754;28;20026;-70
2022/04/06 02:25:09;;;;;;;20.75;5.88;;;10.20;99.90;;;;;;5012846;28;20048;-70
2022/04/06 02:27:46;;;;;;;19.30;4.55;;;10.10;99.90;;;;;;5012675;28;20054;-69
2022/04/06 02:30:12;;;;;;;22.45;6.13;;;10.10;99.90;;;;;;5013030;28;20029;-69
2022/04/06 02:32:37;;;;;;;20.77;5.82;;;10.10;99.90;;;;;;5012239;28;20044;-69
2022/04/06 02:35:03;;;;;;;21.52;4.38;;;10.10;99.90;;;;;;5011541;28;20022;-69
2022/04/06 02:37:29;;;;;;;21.00;4.95;;;10.10;99.90;;;;;;5013042;28;20030;-69
2022/04/06 02:39:54;;;;;;;21.55;4.32;;;10.00;99.90;;;;;;5012491;28;20030;-69
2022/04/06 02:42:20;;;;;;;30.30;6.80;;;10.00;99.90;;;;;;5013074;28;20022;-69
2022/04/06 02:44:45;;;;;;;19.90;4.15;;;10.10;99.90;;;;;;5012319;28;20109;-70
2022/04/06 02:47:11;;;;;;;22.75;5.95;;;10.10;99.90;;;;;;5012759;28;20065;-70
2022/04/06 02:49:37;;;;;;;24.67;6.35;;;10.00;99.90;;;;;;5012645;28;20037;-69
2022/04/06 02:52:02;;;;;;;23.38;6.30;;;10.10;99.90;;;;;;5012290;28;20587;-69
2022/04/06 02:54:28;;;;;;;18.83;4.40;;;10.00;99.90;;;;;;5012419;28;20030;-69
2022/04/06 02:56:54;;;;;;;20.30;5.72;;;10.00;99.90;;;;;;5012092;28;20041;-70
2022/04/06 02:59:19;;;;;;;24.88;4.68;;;10.00;99.90;;;;;;5012231;28;20042;-69
2022/04/06 03:01:45;;;;;;;21.40;4.10;;;10.00;99.90;;;;;;5012806;28;20029;-69
2022/04/06 03:04:10;;;;;;;19.52;4.70;;;9.90;99.90;;;;;;5012562;28;20026;-68
2022/04/06 03:06:37;;;;;;;21.98;5.43;;;9.90;99.90;;;;;;5012580;28;20168;-69
2022/04/06 03:09:03;;;;;;;21.50;6.00;;;9.90;99.90;;;;;;5011141;28;20389;-69
2022/04/06 03:11:28;;;;;;;22.08;6.20;;;9.90;99.90;;;;;;5012408;28;20121;-69
2022/04/06 03:13:54;;;;;;;18.42;5.97;;;9.90;99.90;;;;;;5016071;28;20034;-69
2022/04/06 03:16:19;;;;;;;19.73;4.72;;;9.90;99.90;;;;;;5016507;28;20034;-69
2022/04/06 03:18:45;;;;;;;19.83;5.63;;;10.00;99.90;;;;;;5016021;28;20042;-69
2022/04/06 03:21:11;;;;;;;18.55;4.28;;;9.90;99.90;;;;;;5016433;28;20026;-70
2022/04/06 03:23:36;;;;;;;18.77;3.75;;;9.90;99.90;;;;;;5016338;28;20459;-69
2022/04/06 03:26:02;;;;;;;11.38;3.35;;;9.90;99.90;;;;;;5016250;28;20045;-69
2022/04/06 03:28:28;;;;;;;17.42;3.80;;;10.00;99.90;;;;;;5016150;28;20490;-69
2022/04/06 03:30:54;;;;;;;23.05;3.85;;;9.90;99.90;;;;;;5015949;28;20036;-69
2022/04/06 03:33:20;;;;;;;21.23;3.70;;;9.90;99.90;;;;;;5016092;28;20112;-69
2022/04/06 03:35:45;;;;;;;13.68;3.28;;;9.90;99.90;;;;;;5016244;28;20058;-70
2022/04/06 03:38:11;;;;;;;16.80;3.10;;;10.00;99.90;;;;;;5015615;28;20038;-70
2022/04/06 03:40:37;;;;;;;16.98;3.35;;;10.00;99.90;;;;;;5016041;28;20026;-70
2022/04/06 03:43:02;;;;;;;13.32;3.63;;;10.00;99.90;;;;;;5015239;28;20402;-70
2022/04/06 03:45:28;;;;;;;13.63;2.92;;;10.00;99.90;;;;;;5016136;28;20087;-70
2022/04/06 03:47:53;;;;;;;10.73;2.70;;;10.00;99.90;;;;;;5014474;28;20068;-69
2022/04/06 03:50:19;;;;;;;7.85;2.42;;;10.00;99.90;;;;;;5016233;28;20065;-70
2022/04/06 03:52:45;;;;;;;12.55;3.05;;;10.00;99.90;;;;;;5015412;28;20112;-69
2022/04/06 03:55:10;;;;;;;15.50;3.70;;;10.00;99.90;;;;;;5015523;28;20033;-70
2022/04/06 03:57:37;;;;;;;11.13;2.33;;;10.00;99.90;;;;;;5015269;28;20036;-70
2022/04/06 04:00:08;;;;;;;19.80;4.45;;;10.00;99.90;;;;;;5015759;28;20386;-70
2022/04/06 04:02:33;;;;;;;16.23;2.90;;;10.00;99.90;;;;;;5015585;28;20034;-70
2022/04/06 04:04:59;;;;;;;19.83;4.65;;;10.00;99.90;;;;;;5015858;28;20091;-70
2022/04/06 04:07:25;;;;;;;21.33;4.38;;;10.00;99.90;;;;;;5014423;28;20584;-70
2022/04/06 04:09:50;;;;;;;13.57;2.80;;;10.00;99.90;;;;;;5015801;28;20030;-70
2022/04/06 04:12:17;;;;;;;12.88;2.90;;;10.00;99.90;;;;;;5014963;28;20034;-70
2022/04/06 04:14:44;;;;;;;24.88;5.40;;;10.00;99.90;;;;;;5013082;28;20382;-70
2022/04/06 04:17:10;;;;;;;17.00;5.13;;;10.00;99.90;;;;;;5015528;28;20029;-69
2022/04/06 04:19:36;;;;;;;16.13;4.25;;;10.00;99.90;;;;;;5015287;28;20048;-69
2022/04/06 04:22:02;;;;;;;25.67;6.25;;;10.00;99.90;;;;;;5015656;28;20038;-69
2022/04/06 04:24:27;;;;;;;19.70;4.25;;;10.00;99.90;;;;;;5014418;28;20038;-69
2022/04/06 04:26:53;;;;;;;16.45;3.83;;;10.00;99.90;;;;;;5014671;28;20049;-69
2022/04/06 04:29:19;;;;;;;16.23;3.83;;;10.00;99.90;;;;;;5014989;28;20056;-69
2022/04/06 04:31:46;;;;;;;20.35;4.20;;;10.00;99.90;;;;;;5015051;28;20049;-69
2022/04/06 04:34:11;;;;;;;14.55;3.13;;;10.00;99.90;;;;;;5014745;28;20041;-69
2022/04/06 04:36:37;;;;;;;24.08;3.95;;;10.10;99.90;;;;;;5015549;28;20026;-69
2022/04/06 04:39:04;;;;;;;20.05;3.15;;;10.00;99.90;;;;;;5014390;28;20037;-69
2022/04/06 04:41:31;;;;;;;22.15;3.83;;;10.00;99.90;;;;;;5020824;28;20454;-69
2022/04/06 04:43:56;;;;;;;14.70;3.05;;;10.00;99.90;;;;;;5019736;28;20125;-69
2022/04/06 04:46:22;;;;;;;16.67;2.90;;;10.00;99.90;;;;;;5014690;28;20113;-69
2022/04/06 04:48:48;;;;;;;20.77;4.22;;;10.00;99.90;;;;;;5014671;28;20030;-69
2022/04/06 04:51:14;;;;;;;29.27;7.30;;;10.00;99.90;;;;;;5014493;28;20030;-69
2022/04/06 04:53:41;;;;;;;28.23;7.50;;;10.00;99.90;;;;;;5014768;28;20100;-69
2022/04/06 04:56:07;;;;;;;26.08;8.02;;;10.00;99.90;;;;;;5014674;28;20463;-69
2022/04/06 04:58:33;;;;;;;27.88;7.20;;;10.00;99.90;;;;;;5014663;28;20041;-69
2022/04/06 05:00:58;;;;;;;19.13;6.25;;;10.00;99.90;;;;;;5014482;28;20087;-69
2022/04/06 05:03:24;;;;;;;17.58;4.60;;;10.00;99.90;;;;;;5014889;28;20374;-69
2022/04/06 05:05:53;;;;;;;23.98;4.18;;;10.00;99.90;;;;;;5014998;28;20030;-69
2022/04/06 05:08:19;;;;;;;25.92;5.28;;;10.00;99.90;;;;;;5014547;28;20037;-69
2022/04/06 05:10:44;;;;;;;18.98;3.85;;;10.00;99.90;;;;;;5013919;28;20030;-69
2022/04/06 05:13:11;;;;;;;19.75;3.65;;;10.00;99.90;;;;;;5014398;28;20049;-69
2022/04/06 05:15:36;;;;;;;20.92;4.00;;;10.00;99.90;;;;;;5014727;28;20034;-69
2022/04/06 05:18:04;;;;;;;24.80;3.90;;;10.00;99.90;;;;;;5012844;28;20049;-69
2022/04/06 05:20:29;;;;;;;24.00;3.88;;;9.90;99.90;;;;;;5014592;28;20049;-69
2022/04/06 05:22:55;;;;;;;22.63;3.55;;;9.90;99.90;;;;;;5023378;28;20450;-71
2022/04/06 05:25:21;;;;;;;19.85;3.72;;;9.90;99.90;;;;;;5014909;28;20033;-71
2022/04/06 05:27:48;;;;;;;21.88;3.55;;;10.00;99.90;;;;;;5014130;28;20050;-71
2022/04/06 05:30:16;;;;;;;25.88;4.15;;;10.00;99.90;;;;;;5012831;28;20026;-73
2022/04/06 05:32:42;;;;;;;31.80;3.72;;;10.10;99.90;;;;;;5010702;28;20101;-71
2022/04/06 05:35:09;;;;;;;22.70;3.50;;;10.10;99.90;;;;;;5013124;28;20520;-72
2022/04/06 05:37:36;;;;;;;15.02;3.05;;;10.00;99.90;;;;;;5013599;28;20389;-69
2022/04/06 05:40:03;;;;;;;20.08;3.53;;;10.00;99.90;;;;;;5013540;28;20042;-72
2022/04/06 05:42:28;;;;;;;19.85;4.15;;;10.00;99.90;;;;;;5013326;28;20061;-70
2022/04/06 05:44:54;;;;;;;23.52;3.78;;;10.00;99.90;;;;;;5015760;28;20030;-72
2022/04/06 05:47:20;;;;;;;20.15;3.03;;;10.10;99.90;;;;;;5013593;28;20034;-72
2022/04/06 05:49:45;;;;;;;16.88;2.90;;;10.10;99.90;;;;;;5013636;28;20079;-69
2022/04/06 05:52:11;;;;;;;20.90;4.18;;;10.10;99.90;;;;;;5013456;28;20410;-70
2022/04/06 05:54:37;;;;;;;28.35;4.30;;;10.10;99.90;;;;;;5020225;28;20500;-71
2022/04/06 05:57:03;;;;;;;15.35;2.63;;;10.10;99.90;;;;;;5014702;28;20489;-71
2022/04/06 05:59:29;;;;;;;13.10;2.35;;;10.10;99.90;;;;;;5011883;28;20048;-70
2022/04/06 06:01:54;;;;;;;20.52;3.10;;;10.10;99.90;;;;;;5014000;28;20018;-70
2022/04/06 06:04:20;;;;;;;24.55;4.00;;;10.20;99.90;;;;;;5013675;28;20478;-70
2022/04/06 06:06:45;;;;;;;9.05;2.20;;;10.10;99.90;;;;;;5013467;28;20018;-69
2022/04/06 06:09:11;;;;;;;13.13;3.05;;;10.10;99.90;;;;;;5013271;28;20061;-73
2022/04/06 06:11:37;;;;;;;22.58;4.20;;;10.10;99.90;;;;;;5013628;28;20030;-72
2022/04/06 06:14:02;;;;;;;13.65;2.92;;;10.10;99.90;;;;;;5013505;28;20038;-72
2022/04/06 06:16:28;;;;;;;19.48;5.15;;;10.10;99.90;;;;;;5013542;28;20033;-70
2022/04/06 06:18:55;;;;;;;15.65;2.85;;;10.10;99.90;;;;;;5013614;28;20038;-72
2022/04/06 06:21:21;;;;;;;19.30;3.15;;;10.10;99.90;;;;;;5013483;28;20057;-69
2022/04/06 06:23:46;;;;;;;25.58;3.80;;;10.10;99.90;;;;;;5013498;28;20060;-73
2022/04/06 06:26:13;;;;;;;20.65;4.30;;;10.10;99.90;;;;;;5013286;28;20057;-70
2022/04/06 06:28:39;;;;;;;21.42;2.90;;;10.00;99.90;;;;;;5013559;28;20026;-73
2022/04/06 06:31:05;;;;;;;17.38;2.83;;;10.00;99.90;;;;;;5013143;28;20024;-71
2022/04/06 06:33:30;;;;;;;23.60;3.38;;;10.00;99.90;;;;;;5013379;28;20109;-73
2022/04/06 06:35:56;;;;;;;18.40;3.25;;;10.00;99.90;;;;;;5013235;28;20367;-70
2022/04/06 06:38:22;;;;;;;19.23;3.22;;;9.90;99.90;;;;;;5012981;28;20053;-73
2022/04/06 06:40:48;;;;;;;17.88;2.78;;;9.80;99.90;;;;;;5013041;28;20044;-73
2022/04/06 06:43:15;;;;;;;15.95;3.10;;;9.80;99.90;;;;;;5012988;28;20073;-71
2022/04/06 06:45:40;;;;;;;19.52;2.95;;;9.80;99.90;;;;;;5013486;28;20028;-72
2022/04/06 06:48:07;;;;;;;11.93;3.00;;;9.70;99.90;;;;;;5012341;28;20022;-73
2022/04/06 06:50:32;;;;;;;10.23;2.50;;;9.80;99.90;;;;;;5013179;28;20030;-72
2022/04/06 06:52:58;;;;;;;19.88;3.08;;;9.70;99.90;;;;;;5012915;28;20052;-69
2022/04/06 06:55:23;;;;;;;20.90;2.80;;;9.70;99.90;;;;;;5013208;28;20465;-70
2022/04/06 06:57:49;;;;;;;10.43;2.63;;;9.70;99.90;;;;;;5012461;28;20022;-70
2022/04/06 07:00:15;;;;;;;17.17;3.28;;;9.70;99.90;;;;;;5013108;28;20041;-72
2022/04/06 07:02:41;;;;;;;18.98;3.72;;;9.70;99.90;;;;;;5011416;28;20026;-73
2022/04/06 07:05:08;;;;;;;19.48;3.13;;;9.60;99.90;;;;;;5012676;28;20076;-72
2022/04/06 07:07:47;;;;;;;17.60;3.13;;;9.60;99.90;;;;;;5012850;28;20034;-71
2022/04/06 07:10:12;;;;;;;14.57;2.83;;;9.50;99.90;;;;;;5012740;28;20034;-69
2022/04/06 07:12:38;;;;;;;17.80;3.60;;;9.60;99.90;;;;;;5012960;28;20363;-72
2022/04/06 07:15:04;;;;;;;20.45;3.42;;;9.60;99.90;;;;;;5013108;28;20521;-69
2022/04/06 07:17:29;;;;;;;19.45;3.05;;;9.70;99.90;;;;;;5012482;28;20113;-71
2022/04/06 07:19:55;;;;;;;21.67;3.78;;;9.70;99.90;;;;;;5011438;28;20156;-71
2022/04/06 07:22:20;;;;;;;19.80;2.83;;;9.70;99.90;;;;;;5012992;28;20381;-71
2022/04/06 07:24:46;;;;;;;19.55;3.17;;;9.70;99.90;;;;;;5012782;28;20030;-69
2022/04/06 07:27:12;;;;;;;16.05;3.05;;;9.70;99.90;;;;;;5012528;28;20057;-72
2022/04/06 07:29:37;;;;;;;17.92;3.22;;;9.80;99.90;;;;;;5012690;28;20026;-72
2022/04/06 07:32:04;;;;;;;25.92;4.00;;;9.80;99.90;;;;;;5012683;28;20482;-71
2022/04/06 07:34:29;;;;;;;21.77;4.50;;;9.90;99.90;;;;;;5012622;28;20332;-73
2022/04/06 07:36:55;;;;;;;17.30;2.80;;;9.90;99.90;;;;;;5012634;28;20022;-72
2022/04/06 07:39:20;;;;;;;22.25;3.35;;;10.00;99.90;;;;;;5012197;28;20042;-71
2022/04/06 07:41:46;;;;;;;27.88;3.25;;;10.00;99.90;;;;;;5012391;28;20030;-70
2022/04/06 07:44:12;;;;;;;20.08;3.25;;;10.20;99.90;;;;;;5022374;28;20389;-71
2022/04/06 07:46:38;;;;;;;15.07;3.60;;;10.20;99.90;;;;;;5007148;28;20467;-72
2022/04/06 07:49:06;;;;;;;25.23;3.75;;;10.30;99.90;;;;;;5009433;28;20097;-71
2022/04/06 07:51:31;;;;;;;29.50;4.43;;;10.30;99.90;;;;;;5012117;28;20018;-73
2022/04/06 07:53:57;;;;;;;28.02;4.00;;;10.40;99.90;;;;;;5012072;28;20053;-73
2022/04/06 07:56:23;;;;;;;21.90;4.53;;;10.50;99.90;;;;;;5012428;28;20018;-71
2022/04/06 07:58:48;;;;;;;22.35;4.47;;;10.60;99.90;;;;;;5013321;28;20374;-73
2022/04/06 08:01:14;;;;;;;20.58;3.88;;;10.80;99.90;;;;;;5015897;28;20500;-69
2022/04/06 08:03:40;;;;;;;18.45;3.45;;;10.90;99.90;;;;;;5016303;28;20022;-69
2022/04/06 08:06:06;;;;;;;19.50;3.22;;;11.00;99.90;;;;;;5015974;28;20068;-70
2022/04/06 08:08:32;;;;;;;16.25;3.70;;;11.10;99.90;;;;;;5015912;28;20030;-71
2022/04/06 08:10:58;;;;;;;20.10;4.25;;;11.20;99.90;;;;;;5015422;28;20068;-73
2022/04/06 08:13:24;;;;;;;25.38;4.50;;;11.30;99.90;;;;;;5015419;28;20018;-76
2022/04/06 08:15:49;;;;;;;23.60;4.57;;;11.40;99.90;;;;;;5015751;28;20026;-72
2022/04/06 08:18:15;;;;;;;24.17;3.92;;;11.50;99.90;;;;;;5014577;28;20042;-73
2022/04/06 08:20:41;;;;;;;19.08;4.55;;;11.70;99.90;;;;;;5015540;28;20378;-70
2022/04/06 08:23:10;;;;;;;25.98;4.32;;;11.80;99.90;;;;;;5015547;28;20100;-70
2022/04/06 08:25:41;;;;;;;25.67;4.10;;;11.80;99.90;;;;;;5015481;28;20113;-73
2022/04/06 08:28:08;;;;;;;16.42;3.30;;;11.80;99.90;;;;;;5015854;28;20038;-70
2022/04/06 08:30:39;;;;;;;25.15;4.40;;;11.70;99.90;;;;;;5013794;28;20026;-70
2022/04/06 08:33:05;;;;;;;19.13;4.22;;;11.70;99.90;;;;;;5030979;28;20033;-73
2022/04/06 08:35:32;;;;;;;27.02;6.13;;;11.70;99.90;;;;;;5015327;28;20424;-74
2022/04/06 08:37:58;;;;;;;28.33;4.90;;;11.70;99.90;;;;;;5015179;28;20382;-73
2022/04/06 08:40:25;;;;;;;27.38;5.95;;;11.80;99.90;;;;;;5015046;28;20033;-71
2022/04/06 08:42:57;;;;;;;34.97;9.98;;;12.20;99.90;;;;;;5014855;28;20080;-72
2022/04/06 08:45:22;;;;;;;30.20;8.10;;;12.60;99.90;;;;;;5014951;28;20109;-70
2022/04/06 08:47:49;;;;;;;28.20;7.28;;;13.00;99.90;;;;;;5013783;28;20173;-70
2022/04/06 08:50:17;;;;;;;31.55;7.78;;;13.10;99.90;;;;;;5015202;28;20029;-73
2022/04/06 08:52:44;;;;;;;25.88;5.53;;;13.10;99.90;;;;;;5013533;28;20358;-72
2022/04/06 08:55:12;;;;;;;24.33;4.90;;;13.40;99.90;;;;;;5014866;28;20021;-74
2022/04/06 08:57:40;;;;;;;27.08;5.47;;;13.80;99.90;;;;;;5014718;28;20084;-71
2022/04/06 09:00:06;;;;;;;24.75;5.40;;;14.00;99.90;;;;;;5015057;28;20092;-69
2022/04/06 09:02:32;;;;;;;28.40;4.53;;;14.00;99.90;;;;;;5015022;28;20032;-73
2022/04/06 09:04:58;;;;;;;20.67;4.53;;;14.20;99.90;;;;;;5015050;28;20029;-72
2022/04/06 09:07:25;;;;;;;29.13;5.25;;;14.20;99.90;;;;;;5014913;28;20021;-70
2022/04/06 09:09:52;;;;;;;24.83;5.07;;;14.10;99.90;;;;;;5013883;28;20040;-70
2022/04/06 09:12:23;;;;;;;23.58;4.93;;;14.10;99.90;;;;;;5014427;28;20026;-70
2022/04/06 09:15:06;;;;;;;21.73;4.10;;;13.90;99.90;;;;;;5014653;28;20057;-70
2022/04/06 09:17:44;;;;;;;22.30;6.10;;;13.80;99.90;;;;;;5014624;28;20313;-70
2022/04/06 09:20:10;;;;;;;26.95;5.15;;;13.80;99.90;;;;;;5014804;28;20029;-71
2022/04/06 09:22:37;;;;;;;29.98;5.63;;;13.50;99.90;;;;;;5013961;28;20030;-71
2022/04/06 09:25:05;;;;;;;27.45;5.88;;;13.40;99.90;;;;;;5014407;28;20482;-72
2022/04/06 09:27:31;;;;;;;29.17;4.20;;;13.20;99.90;;;;;;5014194;28;20050;-70
2022/04/06 09:29:58;;;;;;;24.23;4.50;;;13.20;99.90;;;;;;5014105;28;20096;-71
2022/04/06 09:32:24;;;;;;;23.35;3.67;;;13.20;99.90;;;;;;5014480;28;20064;-71
2022/04/06 09:34:51;;;;;;;19.60;4.18;;;13.50;99.90;;;;;;5014395;28;20466;-69
2022/04/06 09:37:25;;;;;;;29.92;4.78;;;13.60;99.90;;;;;;5014187;28;20065;-72
2022/04/06 09:39:50;;;;;;;24.80;4.65;;;13.50;99.90;;;;;;5014351;28;20048;-74
2022/04/06 09:42:25;;;;;;;21.33;4.47;;;13.40;99.90;;;;;;5029056;28;20037;-70
2022/04/06 09:47:46;;;;;;;35.33;5.43;;;13.30;99.90;;;;;;5013537;28;20106;-73
2022/04/06 09:50:19;;;;;;;26.27;4.80;;;13.30;99.90;;;;;;5014221;28;20030;-72
2022/04/06 09:52:45;;;;;;;25.90;5.38;;;13.40;99.90;;;;;;5013804;28;20029;-69
2022/04/06 09:55:14;;;;;;;24.90;5.88;;;13.60;99.90;;;;;;5013577;28;20076;-70
2022/04/06 09:57:53;;;;;;;24.55;4.13;;;13.70;99.90;;;;;;5020778;28;20024;-71
2022/04/06 10:00:31;;;;;;;26.20;4.50;;;13.90;99.90;;;;;;5033691;28;20037;-68
2022/04/06 10:03:10;;;;;;;29.85;5.50;;;13.90;99.90;;;;;;5033489;28;20025;-70
2022/04/06 10:05:39;;;;;;;22.02;4.00;;;13.90;99.90;;;;;;5031226;28;20032;-73
2022/04/06 10:08:06;;;;;;;30.38;4.40;;;13.70;99.90;;;;;;5032408;28;20112;-74
2022/04/06 10:10:33;;;;;;;20.23;4.47;;;13.60;99.90;;;;;;5032982;28;20528;-74
2022/04/06 10:13:01;;;;;;;24.20;4.38;;;13.40;99.90;;;;;;5033484;28;20029;-70
2022/04/06 10:15:27;;;;;;;26.55;4.43;;;13.20;99.90;;;;;;5033198;28;20108;-73
2022/04/06 10:17:53;;;;;;;19.63;4.97;;;13.10;99.90;;;;;;5032858;28;20109;-72
2022/04/06 10:20:38;;;;;;;22.42;5.78;;;13.10;99.90;;;;;;5033182;28;20087;-69
2022/04/06 10:23:15;;;;;;;27.45;5.53;;;13.10;99.90;;;;;;5031410;28;20025;-68
2022/04/06 10:26:19;;;;;;;27.70;5.72;;;13.10;99.90;;;;;;5032278;28;20022;-70
2022/04/06 10:28:47;;;;;;;25.08;4.78;;;13.10;99.90;;;;;;5032948;28;20022;-70
2022/04/06 10:31:22;;;;;;;27.52;5.75;;;13.20;99.90;;;;;;5032765;28;20057;-71
2022/04/06 10:33:49;;;;;;;27.67;5.22;;;13.30;99.90;;;;;;5033166;28;20159;-67
2022/04/06 10:36:30;;;;;;;24.38;4.60;;;13.30;99.90;;;;;;5033157;28;20040;-71
2022/04/06 10:39:10;;;;;;;25.52;3.97;;;13.40;99.90;;;;;;5032911;28;20470;-73
2022/04/06 10:41:42;;;;;;;20.30;3.92;;;13.50;99.90;;;;;;5033036;28;20037;-73
2022/04/06 10:44:08;;;;;;;20.75;4.68;;;13.50;99.90;;;;;;5032799;28;20500;-73
2022/04/06 10:46:39;;;;;;;25.05;4.50;;;13.50;99.90;;;;;;5032986;28;20523;-72
2022/04/06 10:49:09;;;;;;;25.80;4.30;;;13.50;99.90;;;;;;5032964;28;20055;-72
2022/04/06 10:51:43;;;;;;;20.88;3.42;;;13.50;99.90;;;;;;5032767;28;20026;-72
2022/04/06 10:54:12;;;;;;;29.42;4.43;;;13.50;99.90;;;;;;5032524;28;20033;-71
2022/04/06 10:56:49;;;;;;;22.38;4.10;;;13.50;99.90;;;;;;5031433;28;20049;-71
2022/04/06 10:59:16;;;;;;;22.60;4.93;;;13.50;99.90;;;;;;5031379;28;20037;-74
2022/04/06 11:01:45;;;;;;;25.80;4.18;;;13.40;99.90;;;;;;5048013;28;20179;-71
2022/04/06 11:04:24;;;;;;;27.80;4.03;;;13.50;99.90;;;;;;5032631;28;20021;-69
2022/04/06 11:06:56;;;;;;;28.13;4.13;;;13.40;99.90;;;;;;5032228;28;20140;-72
2022/04/06 11:12:16;;;;;;;15.23;4.32;;;13.50;99.90;;;;;;5032450;28;19958;-73
2022/04/06 11:14:44;;;;;;;21.55;4.10;;;13.60;99.90;;;;;;5032611;28;20037;-71
2022/04/06 11:17:45;;;;;;;22.48;4.10;;;13.80;99.90;;;;;;5032489;28;20029;-71
2022/04/06 11:20:19;;;;;;;22.52;3.65;;;13.80;99.90;;;;;;5031970;28;20045;-74
2022/04/06 11:22:53;;;;;;;28.48;4.07;;;14.00;99.90;;;;;;5047906;28;20128;-72
2022/04/06 11:25:20;;;;;;;26.27;3.58;;;14.20;99.90;;;;;;5032671;28;20033;-71
2022/04/06 11:27:47;;;;;;;17.77;3.50;;;14.30;99.90;;;;;;5032027;28;20103;-72
2022/04/06 11:30:16;;;;;;;14.55;3.20;;;14.20;99.90;;;;;;5032543;28;20036;-68
2022/04/06 11:32:55;;;;;;;21.88;4.07;;;14.00;99.90;;;;;;5032505;28;20022;-73
2022/04/06 11:35:27;;;;;;;20.55;3.50;;;14.00;99.90;;;;;;5036506;28;20028;-69
2022/04/06 11:37:53;;;;;;;19.45;3.83;;;13.90;99.90;;;;;;5034722;28;20025;-72
2022/04/06 11:40:21;;;;;;;17.67;4.63;;;14.00;99.90;;;;;;5036078;28;20040;-70
2022/04/06 11:42:48;;;;;;;26.67;5.72;;;13.90;99.90;;;;;;5036273;28;20025;-73
2022/04/06 11:45:26;;;;;;;21.05;4.95;;;13.80;99.90;;;;;;5036117;28;20034;-71
2022/04/06 11:48:00;;;;;;;24.23;4.68;;;13.50;99.90;;;;;;5036335;28;20033;-71
2022/04/06 11:50:30;;;;;;;19.95;4.63;;;13.30;99.90;;;;;;5035889;28;20025;-70
2022/04/06 11:53:00;;;;;;;28.33;4.47;;;13.20;99.90;;;;;;5036230;28;20108;-68
2022/04/06 11:55:40;;;;;;;21.30;4.18;;;13.10;99.90;;;;;;5036370;28;20131;-70
2022/04/06 11:58:06;;;;;;;21.73;3.88;;;12.90;99.90;;;;;;5035854;28;20030;-74
2022/04/06 12:00:34;;;;;;;23.13;4.18;;;12.70;99.90;;;;;;5035741;28;20036;-70
2022/04/06 12:02:59;;;;;;;25.73;4.80;;;12.50;99.90;;;;;;5034516;28;20022;-73
2022/04/06 12:05:25;;;;;;;19.70;3.22;;;12.20;99.90;;;;;;5035937;28;20045;-73
2022/04/06 12:08:12;;;;;;;16.75;3.13;;;12.00;99.90;;;;;;5035799;28;20025;-72
2022/04/06 12:10:50;;;;;;;15.65;3.22;;;11.90;99.90;;;;;;5035853;28;20108;-70
2022/04/06 12:13:20;;;;;;;22.10;4.28;;;11.80;99.90;;;;;;5035579;28;20474;-68
2022/04/06 12:15:48;;;;;;;17.50;3.25;;;11.70;99.90;;;;;;5035571;28;20029;-72
2022/04/06 12:18:18;;;;;;;18.77;3.40;;;11.70;99.90;;;;;;5035869;28;20139;-72
2022/04/06 12:20:46;;;;;;;18.95;3.92;;;11.70;99.90;;;;;;5035731;28;20051;-73
2022/04/06 12:23:12;;;;;;;15.75;3.38;;;11.60;99.90;;;;;;5019997;28;20026;-69
2022/04/06 12:25:38;;;;;;;16.65;3.92;;;11.40;99.90;;;;;;5032987;28;20079;-72
2022/04/06 12:28:17;;;;;;;19.92;3.80;;;11.40;99.90;;;;;;5014959;28;20033;-70
2022/04/06 12:30:59;;;;;;;24.77;5.45;;;11.30;99.90;;;;;;5015503;28;20021;-73
2022/04/06 12:33:42;;;;;;;17.88;4.75;;;11.30;99.90;;;;;;5030946;28;20030;-73
2022/04/06 12:36:22;;;;;;;19.30;4.20;;;11.40;99.90;;;;;;5015385;28;20022;-70
2022/04/06 12:39:13;;;;;;;18.00;4.82;;;11.40;99.90;;;;;;5019168;28;20374;-74
2022/04/06 12:42:07;;;;;;;16.83;4.72;;;11.30;99.90;;;;;;5035391;28;20029;-74
2022/04/06 12:44:35;;;;;;;21.42;5.80;;;11.20;99.90;;;;;;5035146;28;20029;-74
2022/04/06 12:47:01;;;;;;;24.80;6.00;;;11.10;99.90;;;;;;5035233;28;20462;-74
2022/04/06 12:49:37;;;;;;;26.67;5.88;;;11.10;99.90;;;;;;5034899;28;20025;-72
2022/04/06 12:52:05;;;;;;;18.35;5.93;;;11.20;99.90;;;;;;5014718;28;20018;-72